HSKO2: Arkansas River, Haskell, OK

                                SHEF ID:       HSKO2     Arkansas River near Haskell, OK
STATION TYPE:
Regulating: Stage = 18.00, Flow = 125429

PRECIP STAGE STAGE(2) RIV-FLOW BAT-LOAD
in ft ft cfs volt
Ccp-Rev Ccp-Rev Ccp-Rev Ccp-Rev Ccp-Rev
(America/Chicago)
04/25 00:00 0.00 6.79 6.82 13921 12.65
04/25 01:00 0.00 6.65 6.67 13151 12.65
04/25 02:00 0.00 6.53 6.52 12509 12.65
04/25 03:00 0.00 6.41 6.41 11882 12.57
04/25 04:00 0.00 6.32 6.32 11423 12.57
04/25 05:00 0.00 6.23 6.22 10973 12.57
04/25 06:00 0.00 6.14 6.14 10532 12.57
04/25 07:00 0.00 6.07 6.08 10195 12.57
04/25 08:00 0.00 6.01 6.01 9910 12.57
04/25 09:00 0.00 5.95 5.97 9630 12.97
04/25 10:00 0.00 5.91 5.91 9445 13.37
04/25 11:00 0.00 5.86 5.90 9217 13.44
04/25 12:00 0.00 5.81 5.85 8991 13.60
04/25 13:00 0.00 5.77 5.83 8812 13.60
04/25 14:00 0.00 5.73 5.79 8636 13.60
04/25 15:00 0.00 5.70 5.75 8504 13.53
04/25 16:00 0.00 5.70 5.72 8504 13.21
04/25 17:00 0.00 5.66 5.71 8331 13.05
04/25 18:00 0.00 5.65 5.69 8287 13.05
04/25 19:00 0.00 5.65 5.69 8287 13.05
04/25 20:00 0.00 5.61 5.65 8116 12.89
04/25 21:00 0.00 5.60 5.66 8073 12.73
04/25 22:00 0.01 5.60 5.62 8073 12.73
04/25 23:00 0.01 5.60 5.64 8073 12.65
Data processed at Sun 26Apr2026 04:13 GMT

NOTICE: If you are parsing this page

Please convert to using our Data API. Starting early 2026 we will be migrating to: https://water.usace.army.mil with modern pages rendered in JavaScript. When this migration completes you will no longer be able to scrape this page! CWMSDataAPI (CDA)

Timeseries IDs (TSIDs)

TSIDs used from left to right in the data table
HASK.Precip-Inc.Total.1Hour.1Hour.Ccp-Rev
HASK.Stage.Inst.1Hour.0.Ccp-Rev
HASK.Stage-Alt.Inst.1Hour.0.Ccp-Rev
HASK.Flow.Inst.1Hour.0.Ccp-Rev
HASK.Volt-Battery Load.Inst.1Hour.0.Ccp-Rev

                            

All information presented herein is the property of the government of the United States of America and may be revised or deleted at any time without prior notice. Dissemination of this information without the expressed written consent of the Public Affairs Office, Tulsa District U.S. Army Corps of Engineers is strictly prohibited. These data are gathered electronically and, as presented, have NOT undergone any form of quality control. These data are NOT guaranteed to be valid or correct.